Time;durP1;ratioP1;P1;durP2;ratioP2;P2;SDS_P1;SDS_P2;PMS_P1;PMS_P2;Temp;Humidity;BMP_temperature;BMP_pressure;BME280_temperature;BME280_humidity;BME280_pressure;Samples;Min_cycle;Max_cycle;Signal;HPM_P1;HPM_P2
2023/02/01 00:01:44;;;;;;;25.40;14.90;;;;;;;-2.91;100.00;97156.27;110256;1242;69836;-72
2023/02/01 00:04:14;;;;;;;31.80;16.60;;;;;;;-2.92;100.00;97154.42;110220;1243;69261;-71
2023/02/01 00:06:43;;;;;;;29.10;19.90;;;;;;;-2.93;100.00;97153.92;110191;1242;69251;-71
2023/02/01 00:09:13;;;;;;;44.10;26.10;;;;;;;-2.93;100.00;97151.38;110196;1242;58885;-71
2023/02/01 00:11:43;;;;;;;45.70;29.20;;;;;;;-2.96;100.00;97156.90;110220;1242;58869;-71
2023/02/01 00:14:13;;;;;;;36.70;24.50;;;;;;;-2.98;100.00;97156.96;110141;1241;70693;-71
2023/02/01 00:16:42;;;;;;;41.20;27.00;;;;;;;-2.99;100.00;97155.11;110216;1243;68492;-71
2023/02/01 00:19:15;;;;;;;40.80;27.70;;;;;;;-3.00;100.00;97153.42;110199;1243;69052;-71
2023/02/01 00:21:45;;;;;;;39.60;26.00;;;;;;;-3.00;100.00;97156.16;110156;1242;58892;-72
2023/02/01 00:24:14;;;;;;;43.10;27.40;;;;;;;-3.01;100.00;97158.21;110256;1242;58930;-71
2023/02/01 00:26:46;;;;;;;39.20;27.50;;;;;;;-3.03;100.00;97150.94;110222;1242;70727;-71
2023/02/01 00:29:18;;;;;;;37.00;25.20;;;;;;;-3.03;100.00;97149.75;110188;1244;69249;-71
2023/02/01 00:31:52;;;;;;;37.60;23.90;;;;;;;-3.06;100.00;97149.64;110182;1241;68522;-71
2023/02/01 00:34:21;;;;;;;33.50;22.10;;;;;;;-3.08;100.00;97146.44;110178;1242;58891;-72
2023/02/01 00:36:51;;;;;;;38.20;25.60;;;;;;;-3.10;100.00;97143.57;110220;1242;58949;-71
2023/02/01 00:39:20;;;;;;;41.10;26.50;;;;;;;-3.12;100.00;97143.80;110236;1244;69818;-71
2023/02/01 00:41:50;;;;;;;;;;;;;;;-3.15;100.00;97144.55;110181;1242;67560;-71
2023/02/01 00:44:20;;;;;;;38.10;23.50;;;;;;;-3.20;100.00;97140.73;110173;1242;69299;-72
2023/02/01 00:46:49;;;;;;;33.80;22.10;;;;;;;-3.24;100.00;97141.01;110172;1242;58946;-71
2023/02/01 00:49:20;;;;;;;36.10;21.70;;;;;;;-3.29;100.00;97138.04;110217;1243;58843;-71
2023/02/01 00:51:50;;;;;;;30.90;19.60;;;;;;;-3.31;100.00;97137.08;110227;1242;70989;-71
2023/02/01 00:54:21;;;;;;;29.40;20.20;;;;;;;-3.34;100.00;97136.63;110214;1242;68582;-73
2023/02/01 00:56:52;;;;;;;47.40;28.10;;;;;;;-3.37;100.00;97130.73;110225;1241;68629;-72
2023/02/01 00:59:22;;;;;;;44.90;28.40;;;;;;;-3.40;100.00;97134.88;110229;1241;58957;-72
2023/02/01 01:01:52;;;;;;;31.30;19.80;;;;;;;-3.43;100.00;97138.19;110186;1243;58882;-71
2023/02/01 01:04:25;;;;;;;32.90;18.60;;;;;;;-3.47;100.00;97137.75;110144;1241;70689;-71
2023/02/01 01:06:54;;;;;;;;;;;;;;;-3.51;100.00;97130.85;110224;1241;67844;-71
2023/02/01 01:09:24;;;;;;;36.70;21.30;;;;;;;-3.57;99.75;97129.46;110169;1242;69221;-71
2023/02/01 01:11:54;;;;;;;31.90;22.30;;;;;;;-3.65;99.48;97126.73;110191;1242;58931;-72
2023/02/01 01:14:25;;;;;;;51.40;28.30;;;;;;;-3.75;99.69;97120.46;110134;1241;58942;-72
2023/02/01 01:16:55;;;;;;;45.50;25.80;;;;;;;-3.84;99.85;97125.93;110222;1242;70753;-70
2023/02/01 01:19:25;;;;;;;40.60;23.20;;;;;;;-3.94;100.00;97124.42;110181;1244;68531;-71
2023/02/01 01:21:55;;;;;;;35.10;19.30;;;;;;;-4.00;100.00;97123.70;110244;1242;69125;-72
2023/02/01 01:24:25;;;;;;;36.30;21.00;;;;;;;-4.03;100.00;97119.84;110303;1245;58889;-71
2023/02/01 01:26:54;;;;;;;34.50;21.10;;;;;;;-4.06;100.00;97123.14;110194;1242;58881;-71
2023/02/01 01:29:24;;;;;;;30.10;19.10;;;;;;;-4.09;100.00;97120.45;110300;1241;70629;-71
2023/02/01 01:31:53;;;;;;;31.30;18.00;;;;;;;-4.11;100.00;97121.52;110274;1240;68480;-71
2023/02/01 01:34:24;;;;;;;28.20;18.70;;;;;;;-4.12;100.00;97117.11;110198;1241;69137;-71
2023/02/01 01:36:56;;;;;;;24.20;16.20;;;;;;;-4.13;100.00;97115.09;110227;1240;58964;-71
2023/02/01 01:39:26;;;;;;;27.80;16.70;;;;;;;-4.14;100.00;97112.73;110282;1242;59346;-71
2023/02/01 01:41:57;;;;;;;24.40;16.10;;;;;;;-4.16;100.00;97109.02;110150;1244;69750;-71
2023/02/01 01:45:06;;;;;;;23.00;14.30;;;;;;;-4.18;100.00;97107.20;110097;1244;68563;-71
2023/02/01 01:47:44;;;;;;;19.20;12.50;;;;;;;-4.21;100.00;97106.73;110160;1244;68534;-71
2023/02/01 01:50:20;;;;;;;28.80;16.40;;;;;;;-4.22;100.00;97111.19;110133;1245;58927;-72
2023/02/01 01:52:55;;;;;;;26.30;15.70;;;;;;;-4.23;100.00;97106.27;110200;1242;58867;-71
2023/02/01 01:55:27;;;;;;;25.60;15.80;;;;;;;-4.25;100.00;97108.01;110213;1242;70551;-71
2023/02/01 01:58:07;;;;;;;27.70;16.80;;;;;;;-4.26;100.00;97108.37;110164;1243;69269;-71
2023/02/01 02:00:38;;;;;;;18.20;11.50;;;;;;;-4.26;100.00;97108.02;110196;1241;68392;-71
2023/02/01 02:03:20;;;;;;;24.70;15.90;;;;;;;-4.22;100.00;97106.43;110110;1244;58960;-71
2023/02/01 02:05:55;;;;;;;26.80;14.80;;;;;;;-4.17;100.00;97106.33;110182;1241;58937;-71
2023/02/01 02:08:27;;;;;;;28.20;17.40;;;;;;;-4.14;100.00;97107.27;110160;1244;70404;-71
2023/02/01 02:11:00;;;;;;;23.60;14.70;;;;;;;-4.11;100.00;97108.92;110207;1240;68599;-71
2023/02/01 02:13:32;;;;;;;29.90;15.90;;;;;;;-4.07;100.00;97104.44;109925;1241;68607;-71
2023/02/01 02:16:39;;;;;;;21.10;14.20;;;;;;;-4.04;100.00;97104.38;110209;1242;58945;-71
2023/02/01 02:19:31;;;;;;;27.00;16.60;;;;;;;-4.01;100.00;97105.00;110195;1242;58878;-71
2023/02/01 02:22:15;;;;;;;29.50;16.90;;;;;;;-3.97;100.00;97102.70;110229;1242;69842;-71
2023/02/01 02:25:03;;;;;;;26.60;15.70;;;;;;;-3.95;100.00;97107.42;110154;1243;69391;-71
2023/02/01 02:28:07;;;;;;;26.40;14.90;;;;;;;-3.95;100.00;97106.06;110138;1244;69260;-71
2023/02/01 02:30:40;;;;;;;27.90;17.50;;;;;;;-3.92;100.00;97109.58;110166;1243;58941;-71
2023/02/01 02:33:56;;;;;;;31.90;17.90;;;;;;;-3.92;100.00;97107.88;110122;1244;58868;-71
2023/02/01 02:36:52;;;;;;;31.30;18.80;;;;;;;-3.92;100.00;97107.88;109836;1245;69836;-71
2023/02/01 02:40:07;;;;;;;27.60;17.30;;;;;;;-3.93;100.00;97105.86;109905;1246;69191;-71
2023/02/01 02:49:05;;;;;;;29.20;18.00;;;;;;;-3.97;100.00;97103.89;109979;1241;59302;-71
2023/02/01 02:54:50;;;;;;;28.80;16.60;;;;;;;-4.03;100.00;97099.59;110243;1242;68164;-71
2023/02/01 03:05:59;;;;;;;33.30;18.20;;;;;;;-4.07;100.00;97097.45;110147;1245;70597;-71
2023/02/01 03:08:32;;;;;;;26.20;15.40;;;;;;;-4.09;100.00;97098.00;110208;1244;69227;-71
2023/02/01 03:11:08;;;;;;;28.80;16.40;;;;;;;-4.08;100.00;97099.52;110142;1241;68448;-71
2023/02/01 03:13:57;;;;;;;28.50;17.50;;;;;;;-4.07;100.00;97099.99;110159;1241;58944;-71
2023/02/01 03:16:41;;;;;;;24.10;14.70;;;;;;;-4.06;100.00;97094.21;110209;1243;58851;-71
2023/02/01 03:19:23;;;;;;;33.40;17.80;;;;;;;-4.05;100.00;97094.70;110183;1244;70121;-71
2023/02/01 03:22:01;;;;;;;25.40;15.60;;;;;;;-4.05;100.00;97094.35;110151;1240;69186;-71
2023/02/01 03:24:38;;;;;;;27.80;15.70;;;;;;;-4.04;100.00;97093.98;109832;1245;69754;-71
2023/02/01 03:27:23;;;;;;;29.40;17.40;;;;;;;-4.03;100.00;97082.04;110174;1242;58873;-71
2023/02/01 03:30:03;;;;;;;24.60;14.80;;;;;;;-4.01;100.00;97074.02;110183;1241;58938;-71
2023/02/01 03:35:38;;;;;;;21.70;13.10;;;;;;;-3.92;100.00;97062.58;110188;1241;69484;-72
2023/02/01 03:38:31;;;;;;;26.40;15.00;;;;;;;-3.88;100.00;97062.52;110205;1241;68311;-71
2023/02/01 03:41:49;;;;;;;23.10;14.30;;;;;;;-3.86;100.00;97052.23;110217;1243;58894;-71
2023/02/01 03:44:26;;;;;;;22.00;13.50;;;;;;;-3.83;100.00;97048.44;110025;1245;58904;-71
2023/02/01 03:47:12;;;;;;;27.90;15.50;;;;;;;-3.81;100.00;97049.41;110142;1241;69806;-71
2023/02/01 03:49:54;;;;;;;24.40;14.80;;;;;;;-3.79;100.00;97048.52;109835;1241;68582;-71
2023/02/01 03:52:40;;;;;;;26.90;15.50;;;;;;;-3.76;100.00;97048.45;110161;1242;69323;-71
2023/02/01 03:55:12;;;;;;;25.70;15.80;;;;;;;-3.73;100.00;97048.73;110097;1244;58944;-71
2023/02/01 03:57:53;;;;;;;27.20;15.10;;;;;;;-3.71;100.00;97054.13;110091;1245;58860;-72
2023/02/01 04:00:25;;;;;;;26.50;16.20;;;;;;;-3.71;100.00;97052.08;110140;1244;69844;-71
2023/02/01 04:02:54;;;;;;;30.20;15.70;;;;;;;-3.69;100.00;97043.69;110185;1242;69088;-71
2023/02/01 04:05:24;;;;;;;;;;;;;;;-3.65;100.00;97042.77;110064;1241;69446;-71
2023/02/01 04:07:58;;;;;;;24.20;15.30;;;;;;;-3.63;100.00;97044.41;110177;1241;58857;-71
2023/02/01 04:10:27;;;;;;;;;;;;;;;-3.61;100.00;97036.19;110243;1241;58857;-71
2023/02/01 04:12:57;;;;;;;26.50;15.60;;;;;;;-3.60;100.00;97042.98;110197;1241;70574;-71
2023/02/01 04:15:26;;;;;;;27.80;18.10;;;;;;;-3.60;100.00;97043.66;110181;1242;69795;-71
2023/02/01 04:17:56;;;;;;;28.80;18.30;;;;;;;-3.60;100.00;97038.38;110155;1244;68629;-71
2023/02/01 04:20:25;;;;;;;24.70;14.50;;;;;;;-3.58;100.00;97034.24;110259;1241;58963;-71
2023/02/01 04:22:54;;;;;;;27.10;15.20;;;;;;;-3.56;100.00;97027.55;110239;1242;58850;-72
2023/02/01 04:25:24;;;;;;;25.70;16.90;;;;;;;-3.55;100.00;97032.16;110265;1242;70577;-72
2023/02/01 04:27:55;;;;;;;28.30;17.50;;;;;;;-3.57;100.00;97031.50;110317;1243;69252;-72
2023/02/01 04:30:25;;;;;;;25.50;16.90;;;;;;;-3.62;100.00;97032.95;110284;1241;68527;-72
2023/02/01 04:32:55;;;;;;;28.60;17.90;;;;;;;-3.62;100.00;97034.00;110157;1244;58875;-71
2023/02/01 04:35:25;;;;;;;26.40;17.50;;;;;;;-3.61;100.00;97037.54;110175;1242;58843;-71
2023/02/01 04:37:55;;;;;;;25.90;17.50;;;;;;;-3.60;100.00;97037.36;110241;1241;70490;-72
2023/02/01 04:40:25;;;;;;;;;;;;;;;-3.58;100.00;97041.41;110228;1241;68515;-72
2023/02/01 04:42:55;;;;;;;25.60;15.10;;;;;;;-3.55;100.00;97042.55;110197;1240;69293;-72
2023/02/01 04:45:25;;;;;;;25.80;15.80;;;;;;;-3.52;100.00;97042.80;110205;1241;58828;-72
2023/02/01 04:47:55;;;;;;;;;;;;;;;-3.51;100.00;97041.92;110200;1241;58885;-72
2023/02/01 04:50:24;;;;;;;24.30;12.70;;;;;;;-3.49;100.00;97042.21;110224;1242;70343;-72
2023/02/01 04:52:53;;;;;;;27.20;16.30;;;;;;;-3.46;100.00;97043.02;110201;1242;69772;-72
2023/02/01 04:55:23;;;;;;;25.70;15.50;;;;;;;-3.44;100.00;97047.05;110191;1241;68524;-72
2023/02/01 04:57:52;;;;;;;22.70;14.80;;;;;;;-3.45;100.00;97052.01;110189;1242;58963;-71
2023/02/01 05:00:22;;;;;;;26.80;14.70;;;;;;;-3.44;100.00;97049.94;110220;1245;58938;-72
2023/02/01 05:02:52;;;;;;;20.00;13.60;;;;;;;-3.41;100.00;97051.92;110193;1242;69887;-71
2023/02/01 05:05:22;;;;;;;26.90;16.40;;;;;;;-3.38;100.00;97047.08;110221;1242;69266;-71
2023/02/01 05:07:52;;;;;;;27.90;17.20;;;;;;;-3.38;100.00;97046.73;110192;1241;70044;-72
2023/02/01 05:10:21;;;;;;;25.10;16.40;;;;;;;-3.37;100.00;97044.52;110176;1245;58864;-72
2023/02/01 05:15:40;;;;;;;41.30;23.70;;;;;;;-3.36;100.00;97040.39;110226;1242;70595;-71
2023/02/01 05:18:09;;;;;;;29.40;20.10;;;;;;;-3.35;100.00;97040.53;110223;1241;68255;-72
2023/02/01 05:20:39;;;;;;;32.70;21.90;;;;;;;-3.34;100.00;97043.41;110178;1250;69872;-72
2023/02/01 05:23:09;;;;;;;32.90;20.40;;;;;;;-3.33;100.00;97048.33;110184;1243;58867;-72
2023/02/01 05:25:38;;;;;;;27.70;17.20;;;;;;;-3.32;100.00;97051.38;110251;1240;59313;-71
2023/02/01 05:28:07;;;;;;;30.20;17.30;;;;;;;-3.30;100.00;97053.21;110256;1242;70939;-71
2023/02/01 05:30:37;;;;;;;23.90;15.70;;;;;;;-3.28;100.00;97052.65;110239;1243;69498;-71
2023/02/01 05:33:09;;;;;;;24.40;16.20;;;;;;;-3.25;100.00;97057.70;110231;1244;69766;-72
2023/02/01 05:35:39;;;;;;;27.50;16.00;;;;;;;-3.24;100.00;97055.61;110201;1241;58945;-72
2023/02/01 05:38:08;;;;;;;27.70;18.30;;;;;;;-3.22;100.00;97044.98;110188;1242;58891;-72
2023/02/01 05:40:38;;;;;;;33.20;19.90;;;;;;;-3.19;100.00;97044.41;110182;1240;70435;-71
2023/02/01 05:43:07;;;;;;;25.90;15.10;;;;;;;-3.17;100.00;97042.16;110241;1242;69100;-72
2023/02/01 05:45:37;;;;;;;30.80;19.40;;;;;;;-3.15;100.00;97046.03;110183;1242;69253;-72
2023/02/01 05:48:06;;;;;;;30.20;17.30;;;;;;;-3.13;100.00;97050.41;110256;1242;58955;-72
2023/02/01 05:50:36;;;;;;;31.50;18.80;;;;;;;-3.10;100.00;97046.93;110142;1241;58928;-72
2023/02/01 05:53:11;;;;;;;29.60;18.80;;;;;;;-3.08;100.00;97048.90;110216;1241;70754;-72
2023/02/01 05:55:42;;;;;;;26.90;16.60;;;;;;;-3.03;100.00;97050.86;110249;1241;68544;-72
2023/02/01 05:58:12;;;;;;;30.80;19.40;;;;;;;-3.01;100.00;97052.34;110149;1241;68992;-72
2023/02/01 06:00:42;;;;;;;31.20;18.90;;;;;;;-3.00;100.00;97061.01;110237;1240;58902;-72
2023/02/01 06:03:11;;;;;;;28.70;18.10;;;;;;;-2.97;100.00;97066.23;110185;1241;58902;-72
2023/02/01 06:05:44;;;;;;;28.40;17.90;;;;;;;-2.94;100.00;97061.39;110214;1242;70967;-72
2023/02/01 06:08:13;;;;;;;31.00;18.60;;;;;;;-2.91;100.00;97066.40;110216;1241;68354;-72
2023/02/01 06:10:43;;;;;;;30.20;19.20;;;;;;;-2.87;100.00;97070.05;110210;1243;69159;-72
2023/02/01 06:13:12;;;;;;;31.00;18.90;;;;;;;-2.83;100.00;97070.98;110145;1241;58930;-72
2023/02/01 06:15:44;;;;;;;32.40;19.20;;;;;;;-2.77;100.00;97072.54;110218;1247;58943;-72
2023/02/01 06:18:15;;;;;;;32.80;20.00;;;;;;;-2.72;100.00;97074.11;110220;1243;71165;-72
2023/02/01 06:20:44;;;;;;;26.30;16.60;;;;;;;-2.67;100.00;97071.95;110226;1242;69677;-72
2023/02/01 06:23:13;;;;;;;34.50;19.00;;;;;;;-2.64;100.00;97072.86;110207;1243;69887;-72
2023/02/01 06:25:42;;;;;;;40.70;27.00;;;;;;;-2.60;100.00;97076.00;110234;1242;58973;-72
2023/02/01 06:28:10;;;;;;;46.10;28.20;;;;;;;-2.58;100.00;97078.36;110221;1242;58928;-72
2023/02/01 06:30:42;;;;;;;41.20;26.90;;;;;;;-2.56;100.00;97075.23;110222;1241;71131;-72
2023/02/01 06:33:14;;;;;;;41.00;26.80;;;;;;;-2.52;100.00;97070.01;110201;1241;68960;-72
2023/02/01 06:35:44;;;;;;;29.30;20.60;;;;;;;-2.46;100.00;97067.82;110162;1241;68832;-72
2023/02/01 06:38:14;;;;;;;33.20;22.60;;;;;;;-2.41;100.00;97069.23;110231;1241;58881;-72
2023/02/01 06:40:43;;;;;;;27.60;19.00;;;;;;;-2.36;100.00;97067.88;110207;1243;58878;-72
2023/02/01 06:43:12;;;;;;;27.70;18.40;;;;;;;-2.29;100.00;97066.33;110247;1241;70570;-72
2023/02/01 06:45:41;;;;;;;32.90;21.30;;;;;;;-2.23;100.00;97068.55;110173;1241;69736;-72
2023/02/01 06:48:10;;;;;;;30.40;19.50;;;;;;;-2.18;100.00;97075.23;110221;1242;69077;-72
2023/02/01 06:50:39;;;;;;;32.00;21.30;;;;;;;-2.12;100.00;97075.75;110188;1241;58947;-72
2023/02/01 06:53:08;;;;;;;37.00;23.70;;;;;;;-2.06;100.00;97072.70;110276;1245;58916;-72
2023/02/01 06:55:37;;;;;;;31.50;20.70;;;;;;;-2.02;100.00;97075.14;110185;1242;70778;-72
2023/02/01 06:58:05;;;;;;;32.10;20.00;;;;;;;-1.97;100.00;97081.50;110154;1241;68134;-72
2023/02/01 07:00:35;;;;;;;33.10;20.60;;;;;;;-1.92;100.00;97085.46;110160;1245;69077;-72
2023/02/01 07:03:03;;;;;;;29.20;18.40;;;;;;;-1.87;100.00;97082.06;110214;1242;58875;-72
2023/02/01 07:05:33;;;;;;;30.90;19.10;;;;;;;-1.80;100.00;97086.47;110227;1241;58940;-72
2023/02/01 07:08:01;;;;;;;25.10;17.50;;;;;;;-1.73;100.00;97090.70;110220;1244;70712;-72
2023/02/01 07:10:31;;;;;;;27.10;17.60;;;;;;;-1.66;100.00;97092.73;110191;1241;69838;-72
2023/02/01 07:13:00;;;;;;;26.70;18.60;;;;;;;-1.58;100.00;97094.38;110224;1241;69111;-72
2023/02/01 07:15:29;;;;;;;31.30;19.60;;;;;;;-1.49;100.00;97088.28;110212;1245;58863;-72
2023/02/01 07:17:58;;;;;;;25.20;17.10;;;;;;;-1.37;100.00;97093.23;110214;1243;58882;-72
2023/02/01 07:20:27;;;;;;;28.00;18.90;;;;;;;-1.26;100.00;97098.69;110177;1243;71143;-72
2023/02/01 07:22:57;;;;;;;26.30;18.90;;;;;;;-1.18;100.00;97096.58;110289;1245;69792;-72
2023/02/01 07:25:25;;;;;;;24.80;17.30;;;;;;;-1.14;100.00;97097.49;110266;1242;69249;-72
2023/02/01 07:27:54;;;;;;;21.20;15.60;;;;;;;-1.12;100.00;97100.31;110268;1242;58954;-72
2023/02/01 07:30:23;;;;;;;26.10;17.00;;;;;;;-1.13;100.00;97098.64;110177;1244;58897;-72
2023/02/01 07:32:52;;;;;;;23.00;16.80;;;;;;;-1.13;100.00;97096.08;110172;1245;70182;-72
2023/02/01 07:35:21;;;;;;;22.10;16.00;;;;;;;-1.15;100.00;97095.45;110183;1241;70020;-71
2023/02/01 07:37:50;;;;;;;27.90;16.60;;;;;;;-1.13;100.00;97092.84;110157;1241;69270;-72
2023/02/01 07:40:24;;;;;;;24.70;16.00;;;;;;;-1.13;100.00;97093.17;110191;1243;58879;-72
2023/02/01 07:42:58;;;;;;;29.20;19.50;;;;;;;-1.10;100.00;97097.36;110237;1241;58905;-71
2023/02/01 07:45:27;;;;;;;24.60;17.40;;;;;;;-1.07;100.00;97095.72;110197;1241;69816;-72
2023/02/01 07:47:56;;;;;;;30.40;20.80;;;;;;;-1.01;100.00;97088.70;109860;1241;446855;-70
2023/02/01 07:50:26;;;;;;;43.80;30.00;;;;;;;-0.93;100.00;97087.08;110162;1242;68521;-70
2023/02/01 07:52:55;;;;;;;45.70;30.60;;;;;;;-0.88;100.00;97091.69;110146;1243;58937;-71
2023/02/01 07:55:24;;;;;;;42.20;28.00;;;;;;;-0.73;100.00;97085.05;110170;1242;58828;-71
2023/02/01 07:57:56;;;;;;;46.20;33.90;;;;;;;-0.55;100.00;97089.21;110188;1244;70620;-73
2023/02/01 08:03:14;;;;;;;43.70;29.30;;;;;;;-0.29;100.00;97089.38;110173;1244;69107;-71
2023/02/01 08:05:44;;;;;;;55.00;36.80;;;;;;;-0.23;100.00;97081.83;110130;1242;58934;-71
2023/02/01 08:08:13;;;;;;;60.50;44.00;;;;;;;-0.29;99.77;97079.79;110162;1242;58827;-71
2023/02/01 08:10:42;;;;;;;54.90;40.10;;;;;;;-0.33;99.88;97072.05;110134;1241;69942;-72
2023/02/01 08:13:11;;;;;;;66.70;48.60;;;;;;;-0.31;100.00;97073.19;110175;1241;69340;-71
2023/02/01 08:15:40;;;;;;;68.90;48.10;;;;;;;-0.34;100.00;97073.45;110167;1241;69255;-71
2023/02/01 08:18:10;;;;;;;56.40;40.90;;;;;;;-0.35;100.00;97073.97;110114;1243;58944;-71
2023/02/01 08:20:41;;;;;;;;;;;;;;;-0.24;100.00;97074.13;110142;1242;58830;-71
2023/02/01 08:23:09;;;;;;;70.50;45.10;;;;;;;-0.20;99.80;97082.05;110201;1241;70593;-72
2023/02/01 08:25:38;;;;;;;72.40;50.00;;;;;;;-0.19;99.69;97080.97;110152;1242;69356;-72
2023/02/01 08:28:08;;;;;;;61.70;43.30;;;;;;;-0.17;99.20;97079.52;110172;1242;69276;-72
2023/02/01 08:30:38;;;;;;;35.00;26.10;;;;;;;-0.11;99.16;97078.62;110149;1245;58883;-72
2023/02/01 08:33:07;;;;;;;37.80;26.50;;;;;;;-0.04;99.01;97081.63;110210;1242;58941;-73
2023/02/01 08:35:36;;;;;;;35.10;24.10;;;;;;;0.06;98.55;97083.33;110172;1243;70978;-73
2023/02/01 08:38:11;;;;;;;33.70;25.10;;;;;;;0.17;98.11;97086.21;110328;1241;69468;-73
2023/02/01 08:40:41;;;;;;;38.50;26.70;;;;;;;0.20;97.85;97083.67;110166;1242;69808;-72
2023/02/01 08:43:10;;;;;;;28.70;20.10;;;;;;;0.24;97.87;97082.50;110219;1241;58960;-73
2023/02/01 08:45:39;;;;;;;35.40;27.10;;;;;;;0.35;98.19;97081.09;110187;1243;58864;-73
2023/02/01 08:48:08;;;;;;;44.40;31.20;;;;;;;0.34;97.58;97081.80;110300;1242;70415;-74
2023/02/01 08:50:36;;;;;;;45.20;30.90;;;;;;;0.32;97.43;97082.21;110166;1244;68425;-74
2023/02/01 08:53:08;;;;;;;41.10;29.30;;;;;;;0.29;98.44;97082.31;110095;1244;69783;-74
2023/02/01 08:55:37;;;;;;;37.30;26.50;;;;;;;0.54;99.87;97081.55;110152;1242;58964;-74
2023/02/01 08:58:06;;;;;;;32.80;25.40;;;;;;;0.64;98.65;97086.00;110102;1244;58935;-74
2023/02/01 09:00:35;;;;;;;44.20;33.00;;;;;;;0.61;97.04;97087.80;109852;1244;71366;-74
2023/02/01 09:03:05;;;;;;;39.10;30.00;;;;;;;0.52;96.79;97089.53;110112;1244;69747;-74
2023/02/01 09:05:34;;;;;;;38.10;27.30;;;;;;;0.49;96.99;97089.09;110276;1245;69851;-74
2023/02/01 09:08:19;;;;;;;39.70;28.50;;;;;;;0.47;97.06;97090.89;110124;1244;58871;-74
2023/02/01 09:10:48;;;;;;;41.70;31.70;;;;;;;0.45;96.98;97089.95;110138;1244;58877;-74
2023/02/01 09:13:17;;;;;;;37.80;27.10;;;;;;;0.46;97.14;97092.12;110191;1245;70424;-75
2023/02/01 09:15:46;;;;;;;31.00;22.50;;;;;;;0.50;97.11;97086.31;110092;1243;69162;-72
2023/02/01 09:18:16;;;;;;;28.90;21.10;;;;;;;0.56;97.11;97087.48;110152;1248;69166;-73
2023/02/01 09:20:45;;;;;;;34.60;22.80;;;;;;;0.45;97.04;97088.05;110120;1244;58895;-72
2023/02/01 09:23:14;;;;;;;35.80;23.90;;;;;;;0.54;97.31;97082.06;110146;1244;58937;-73
2023/02/01 09:25:43;;;;;;;30.70;21.40;;;;;;;0.57;97.04;97078.70;110082;1245;70609;-73
2023/02/01 09:28:12;;;;;;;28.10;19.80;;;;;;;0.40;97.53;97074.71;110143;1245;69791;-72
2023/02/01 09:30:41;;;;;;;29.00;19.70;;;;;;;0.36;97.77;97076.73;110130;1244;69892;-72
2023/02/01 09:33:10;;;;;;;22.50;16.60;;;;;;;0.29;97.85;97075.14;110124;1242;58959;-73
2023/02/01 09:35:39;;;;;;;25.60;18.50;;;;;;;0.22;98.14;97078.66;110076;1244;58805;-73
2023/02/01 09:38:07;;;;;;;24.60;16.50;;;;;;;0.05;99.55;97079.95;110122;1241;71191;-71
2023/02/01 09:40:46;;;;;;;21.80;17.00;;;;;;;-0.07;100.00;97080.19;110069;1244;68344;-71
2023/02/01 09:43:46;;;;;;;22.90;17.50;;;;;;;-0.04;99.96;97082.33;110083;1244;69103;-71
2023/02/01 09:46:33;;;;;;;24.80;17.00;;;;;;;-0.07;99.93;97076.08;110097;1245;59263;-72
2023/02/01 09:49:14;;;;;;;31.30;20.70;;;;;;;-0.13;100.00;97075.80;110080;1245;58975;-72
2023/02/01 09:51:47;;;;;;;30.90;21.80;;;;;;;-0.18;100.00;97069.30;110081;1242;71009;-72
2023/02/01 09:54:20;;;;;;;20.90;15.20;;;;;;;-0.31;100.00;97071.45;110134;1245;69823;-72
2023/02/01 09:56:52;;;;;;;23.20;17.50;;;;;;;-0.33;100.00;97069.11;110052;1244;69467;-72
2023/02/01 09:59:44;;;;;;;23.10;17.20;;;;;;;-0.31;100.00;97070.77;110066;1243;58926;-72
2023/02/01 10:02:26;;;;;;;20.60;14.20;;;;;;;-0.27;100.00;97072.36;110072;1244;58898;-72
2023/02/01 10:05:01;;;;;;;20.00;13.90;;;;;;;-0.28;100.00;97071.70;110096;1244;71234;-72
2023/02/01 10:07:33;;;;;;;19.30;12.70;;;;;;;-0.29;100.00;97069.66;110107;1244;69105;-72
2023/02/01 10:10:29;;;;;;;16.40;11.90;;;;;;;-0.33;100.00;97068.77;110090;1244;69784;-72
2023/02/01 10:13:16;;;;;;;17.50;11.70;;;;;;;-0.36;100.00;97070.10;110080;1243;58889;-72
2023/02/01 10:16:05;;;;;;;14.80;10.70;;;;;;;-0.31;100.00;97069.39;110169;1244;58823;-72
2023/02/01 10:18:55;;;;;;;15.10;11.00;;;;;;;-0.39;100.00;97064.72;110135;1243;70634;-73
2023/02/01 10:21:31;;;;;;;14.10;10.70;;;;;;;-0.42;100.00;97062.75;110213;1245;69146;-72
2023/02/01 10:24:20;;;;;;;17.60;11.40;;;;;;;-0.33;100.00;97064.33;110177;1244;68529;-72
2023/02/01 10:27:17;;;;;;;19.40;13.10;;;;;;;-0.40;100.00;97066.13;110145;1243;58912;-73
2023/02/01 10:30:11;;;;;;;18.90;12.40;;;;;;;-0.40;100.00;97066.46;110244;1244;58882;-73
2023/02/01 10:32:41;;;;;;;19.50;13.20;;;;;;;-0.46;100.00;97064.63;110072;1244;71172;-71
2023/02/01 10:35:23;;;;;;;20.30;13.10;;;;;;;-0.49;100.00;97063.87;110118;1245;68495;-72
2023/02/01 10:37:53;;;;;;;17.90;12.50;;;;;;;-0.52;100.00;97063.77;110063;1244;69064;-72
2023/02/01 10:40:24;;;;;;;19.90;13.70;;;;;;;-0.59;100.00;97061.81;110101;1244;58875;-72
2023/02/01 10:43:01;;;;;;;20.80;14.80;;;;;;;-0.57;100.00;97062.25;110083;1245;58934;-71
2023/02/01 10:45:33;;;;;;;24.00;15.90;;;;;;;-0.61;100.00;97061.02;110099;1243;71168;-72
2023/02/01 10:48:03;;;;;;;22.50;15.00;;;;;;;-0.59;100.00;97062.16;110124;1242;69237;-72
2023/02/01 10:50:39;;;;;;;;;;;;;;;-0.58;100.00;97060.92;110067;1245;69868;-72
2023/02/01 10:53:26;;;;;;;22.70;14.30;;;;;;;-0.58;100.00;97060.08;110086;1244;58956;-71
2023/02/01 10:55:56;;;;;;;22.30;15.80;;;;;;;-0.59;100.00;97060.27;110115;1244;58806;-72
2023/02/01 10:58:36;;;;;;;19.50;14.10;;;;;;;-0.52;100.00;97057.28;110136;1243;70391;-71
2023/02/01 11:01:10;;;;;;;18.50;13.60;;;;;;;-0.48;100.00;97052.01;109775;1245;69133;-72
2023/02/01 11:03:41;;;;;;;19.20;14.50;;;;;;;-0.44;100.00;97050.67;110061;1243;68530;-72
2023/02/01 11:06:23;;;;;;;21.20;16.20;;;;;;;-0.38;100.00;97046.88;110110;1244;58934;-71
2023/02/01 11:09:08;;;;;;;20.90;14.70;;;;;;;-0.31;100.00;97043.55;110085;1246;58884;-73
2023/02/01 11:11:59;;;;;;;24.00;15.50;;;;;;;-0.20;100.00;97045.91;110064;1245;70353;-72
2023/02/01 11:14:37;;;;;;;24.00;16.70;;;;;;;-0.17;100.00;97048.35;110132;1244;70551;-73
2023/02/01 11:17:14;;;;;;;22.90;15.20;;;;;;;-0.11;100.00;97044.88;110110;1245;69882;-72
2023/02/01 11:19:55;;;;;;;18.00;13.70;;;;;;;-0.10;100.00;97044.33;110097;1245;58943;-72
2023/02/01 11:22:27;;;;;;;24.40;17.10;;;;;;;-0.05;100.00;97045.17;110112;1244;58884;-72
2023/02/01 11:24:58;;;;;;;23.20;18.10;;;;;;;-0.09;100.00;97039.00;110133;1244;70597;-71
2023/02/01 11:27:27;;;;;;;32.80;23.60;;;;;;;-0.00;100.00;97035.44;110088;1244;68380;-71
2023/02/01 11:30:01;;;;;;;27.00;19.30;;;;;;;-0.06;100.00;97038.38;110065;1244;69247;-71
2023/02/01 11:32:30;;;;;;;26.50;18.70;;;;;;;-0.07;100.00;97041.83;110126;1244;59248;-72
2023/02/01 11:35:04;;;;;;;25.60;18.40;;;;;;;-0.08;100.00;97040.33;110169;1245;58882;-71
2023/02/01 11:37:43;;;;;;;21.00;16.20;;;;;;;-0.09;100.00;97043.27;110113;1245;71325;-71
2023/02/01 11:40:17;;;;;;;20.10;16.20;;;;;;;-0.11;100.00;97043.17;110075;1245;68755;-71
2023/02/01 11:43:24;;;;;;;19.90;15.00;;;;;;;-0.13;100.00;97043.77;110044;1246;70005;-72
2023/02/01 11:46:01;;;;;;;21.80;14.90;;;;;;;-0.12;100.00;97046.46;110100;1245;58953;-73
2023/02/01 11:48:32;;;;;;;21.00;14.90;;;;;;;-0.16;100.00;97050.38;110098;1245;58882;-72
2023/02/01 11:51:23;;;;;;;23.20;17.20;;;;;;;-0.13;100.00;97054.90;110125;1243;70099;-72
2023/02/01 11:54:20;;;;;;;23.60;17.30;;;;;;;-0.16;100.00;97056.88;110094;1245;69094;-73
2023/02/01 11:57:15;;;;;;;19.90;14.90;;;;;;;-0.14;100.00;97052.70;110041;1245;69287;-73
2023/02/01 12:00:08;;;;;;;24.70;16.20;;;;;;;-0.19;100.00;97053.23;110120;1246;58932;-73
2023/02/01 12:03:13;;;;;;;23.90;19.30;;;;;;;-0.17;100.00;97051.42;110106;1244;58893;-73